sensor_id;sensor_type;location;lat;lon;timestamp;pressure;altitude;pressure_sealevel;temperature;humidity
15263;BME280;7733;51.554;13.590;2023-05-19T00:01:42;101489.19;;;11.19;63.50
15263;BME280;7733;51.554;13.590;2023-05-19T00:04:13;101494.44;;;11.03;64.58
15263;BME280;7733;51.554;13.590;2023-05-19T00:06:40;101484.72;;;10.68;65.66
15263;BME280;7733;51.554;13.590;2023-05-19T00:09:08;101480.28;;;10.59;66.10
15263;BME280;7733;51.554;13.590;2023-05-19T00:11:37;101483.84;;;10.77;65.39
15263;BME280;7733;51.554;13.590;2023-05-19T00:14:06;101478.66;;;10.89;65.00
15263;BME280;7733;51.554;13.590;2023-05-19T00:16:32;101478.69;;;11.59;61.40
15263;BME280;7733;51.554;13.590;2023-05-19T00:19:00;101485.72;;;11.26;62.71
15263;BME280;7733;51.554;13.590;2023-05-19T00:21:28;101488.31;;;11.02;63.66
15263;BME280;7733;51.554;13.590;2023-05-19T00:23:54;101493.28;;;10.29;67.12
15263;BME280;7733;51.554;13.590;2023-05-19T00:26:20;101497.66;;;10.30;67.53
15263;BME280;7733;51.554;13.590;2023-05-19T00:28:48;101493.47;;;10.65;66.58
15263;BME280;7733;51.554;13.590;2023-05-19T00:31:14;101490.09;;;11.26;63.69
15263;BME280;7733;51.554;13.590;2023-05-19T00:33:40;101498.84;;;11.31;62.96
15263;BME280;7733;51.554;13.590;2023-05-19T00:36:06;101490.09;;;11.69;61.08
15263;BME280;7733;51.554;13.590;2023-05-19T00:38:34;101489.22;;;11.35;63.29
15263;BME280;7733;51.554;13.590;2023-05-19T00:41:03;101492.72;;;11.21;64.07
15263;BME280;7733;51.554;13.590;2023-05-19T00:43:28;101483.09;;;11.52;62.83
15263;BME280;7733;51.554;13.590;2023-05-19T00:45:55;101493.59;;;11.72;61.31
15263;BME280;7733;51.554;13.590;2023-05-19T00:48:21;101482.19;;;11.70;61.71
15263;BME280;7733;51.554;13.590;2023-05-19T00:50:49;101483.06;;;12.03;59.94
15263;BME280;7733;51.554;13.590;2023-05-19T00:53:17;101480.47;;;11.49;61.46
15263;BME280;7733;51.554;13.590;2023-05-19T00:55:44;101472.56;;;11.72;60.40
15263;BME280;7733;51.554;13.590;2023-05-19T00:58:12;101476.06;;;11.67;60.42
15263;BME280;7733;51.554;13.590;2023-05-19T01:00:39;101472.59;;;11.42;62.13
15263;BME280;7733;51.554;13.590;2023-05-19T01:03:05;101470.81;;;11.93;59.46
15263;BME280;7733;51.554;13.590;2023-05-19T01:05:41;101475.22;;;11.63;61.12
15263;BME280;7733;51.554;13.590;2023-05-19T01:08:09;101469.06;;;11.31;62.20
15263;BME280;7733;51.554;13.590;2023-05-19T01:10:35;101468.19;;;11.59;60.90
15263;BME280;7733;51.554;13.590;2023-05-19T01:13:03;101474.34;;;11.63;60.42
15263;BME280;7733;51.554;13.590;2023-05-19T01:15:39;101469.94;;;11.72;59.91
15263;BME280;7733;51.554;13.590;2023-05-19T01:18:14;101473.47;;;11.83;59.43
15263;BME280;7733;51.554;13.590;2023-05-19T01:21:02;101470.75;;;12.09;58.06
15263;BME280;7733;51.554;13.590;2023-05-19T01:30:25;101469.91;;;12.09;58.40
15263;BME280;7733;51.554;13.590;2023-05-19T01:33:00;101475.06;;;12.36;57.13
15263;BME280;7733;51.554;13.590;2023-05-19T01:35:27;101463.66;;;12.42;56.61
15263;BME280;7733;51.554;13.590;2023-05-19T01:37:57;101476.94;;;11.95;58.81
15263;BME280;7733;51.554;13.590;2023-05-19T01:40:25;101479.56;;;11.95;59.04
15263;BME280;7733;51.554;13.590;2023-05-19T01:42:53;101479.50;;;12.16;57.79
15263;BME280;7733;51.554;13.590;2023-05-19T01:45:21;101480.31;;;12.33;57.29
15263;BME280;7733;51.554;13.590;2023-05-19T01:47:51;101473.28;;;12.44;56.60
15263;BME280;7733;51.554;13.590;2023-05-19T01:50:17;101466.28;;;12.36;56.96
15263;BME280;7733;51.554;13.590;2023-05-19T01:52:43;101477.81;;;11.71;60.24
15263;BME280;7733;51.554;13.590;2023-05-19T01:55:09;101466.44;;;11.92;58.82
15263;BME280;7733;51.554;13.590;2023-05-19T02:03:51;101476.94;;;11.34;62.09
15263;BME280;7733;51.554;13.590;2023-05-19T02:09:50;101475.22;;;11.63;60.74
15263;BME280;7733;51.554;13.590;2023-05-19T02:12:36;101473.44;;;11.65;60.88
15263;BME280;7733;51.554;13.590;2023-05-19T02:17:37;101472.59;;;11.42;62.02
15263;BME280;7733;51.554;13.590;2023-05-19T02:20:07;101472.56;;;11.51;61.27
15263;BME280;7733;51.554;13.590;2023-05-19T02:22:34;101470.81;;;11.86;59.57
15263;BME280;7733;51.554;13.590;2023-05-19T02:25:01;101466.41;;;11.61;60.44
15263;BME280;7733;51.554;13.590;2023-05-19T02:27:26;101460.28;;;11.71;59.87
15263;BME280;7733;51.554;13.590;2023-05-19T02:29:52;101465.53;;;11.76;59.85
15263;BME280;7733;51.554;13.590;2023-05-19T02:32:19;101458.53;;;11.76;59.78
15263;BME280;7733;51.554;13.590;2023-05-19T02:34:45;101469.06;;;11.29;61.95
15263;BME280;7733;51.554;13.590;2023-05-19T02:37:15;101470.81;;;11.68;60.49
15263;BME280;7733;51.554;13.590;2023-05-19T02:39:41;101472.59;;;11.22;62.37
15263;BME280;7733;51.554;13.590;2023-05-19T02:42:07;101475.19;;;11.87;59.88
15263;BME280;7733;51.554;13.590;2023-05-19T02:44:33;101472.59;;;11.86;59.92
15263;BME280;7733;51.554;13.590;2023-05-19T02:46:58;101469.97;;;11.83;59.97
15263;BME280;7733;51.554;13.590;2023-05-19T02:49:24;101461.16;;;12.04;59.14
15263;BME280;7733;51.554;13.590;2023-05-19T02:51:50;101462.88;;;12.00;59.32
15263;BME280;7733;51.554;13.590;2023-05-19T02:54:15;101469.03;;;11.75;60.53
15263;BME280;7733;51.554;13.590;2023-05-19T02:56:41;101467.34;;;11.45;61.67
15263;BME280;7733;51.554;13.590;2023-05-19T02:59:07;101468.22;;;11.44;61.70
15263;BME280;7733;51.554;13.590;2023-05-19T03:01:33;101463.81;;;11.82;60.12
15263;BME280;7733;51.554;13.590;2023-05-19T03:03:58;101469.03;;;11.78;60.48
15263;BME280;7733;51.554;13.590;2023-05-19T03:06:24;101463.81;;;11.56;61.36
15263;BME280;7733;51.554;13.590;2023-05-19T03:08:50;101462.00;;;12.00;59.71
15263;BME280;7733;51.554;13.590;2023-05-19T03:11:16;101462.03;;;11.95;59.89
15263;BME280;7733;51.554;13.590;2023-05-19T03:13:42;101461.16;;;11.93;59.76
15263;BME280;7733;51.554;13.590;2023-05-19T03:16:07;101458.50;;;12.07;59.05
15263;BME280;7733;51.554;13.590;2023-05-19T03:18:34;101454.13;;;12.03;59.49
15263;BME280;7733;51.554;13.590;2023-05-19T03:20:59;101457.66;;;11.96;59.60
15263;BME280;7733;51.554;13.590;2023-05-19T03:23:25;101461.19;;;11.69;61.25
15263;BME280;7733;51.554;13.590;2023-05-19T03:25:51;101461.19;;;11.52;61.75
15263;BME280;7733;51.554;13.590;2023-05-19T03:28:21;101455.03;;;11.74;61.02
15263;BME280;7733;51.554;13.590;2023-05-19T03:30:51;101462.91;;;12.06;60.28
15263;BME280;7733;51.554;13.590;2023-05-19T03:33:17;101468.16;;;12.05;59.78
15263;BME280;7733;51.554;13.590;2023-05-19T03:35:43;101469.06;;;11.88;60.32
15263;BME280;7733;51.554;13.590;2023-05-19T03:38:09;101474.31;;;11.35;62.42
15263;BME280;7733;51.554;13.590;2023-05-19T03:40:35;101469.06;;;11.32;62.54
15263;BME280;7733;51.554;13.590;2023-05-19T03:43:00;101474.31;;;11.35;62.56
15263;BME280;7733;51.554;13.590;2023-05-19T03:45:27;101466.44;;;11.34;62.62
15263;BME280;7733;51.554;13.590;2023-05-19T03:47:53;101471.69;;;11.31;63.06
15263;BME280;7733;51.554;13.590;2023-05-19T03:50:19;101469.03;;;10.91;64.25
15263;BME280;7733;51.554;13.590;2023-05-19T03:52:45;101474.31;;;11.18;63.38
15263;BME280;7733;51.554;13.590;2023-05-19T03:55:12;101468.19;;;11.13;63.53
15263;BME280;7733;51.554;13.590;2023-05-19T03:57:41;101478.69;;;11.12;63.91
15263;BME280;7733;51.554;13.590;2023-05-19T04:00:09;101475.19;;;11.39;62.93
15263;BME280;7733;51.554;13.590;2023-05-19T04:02:35;101474.31;;;11.70;61.48
15263;BME280;7733;51.554;13.590;2023-05-19T04:05:01;101473.47;;;11.50;62.80
15263;BME280;7733;51.554;13.590;2023-05-19T04:07:30;101475.22;;;11.42;63.42
15263;BME280;7733;51.554;13.590;2023-05-19T04:09:56;101487.44;;;11.06;64.80
15263;BME280;7733;51.554;13.590;2023-05-19T04:12:22;101469.94;;;11.60;62.57
15263;BME280;7733;51.554;13.590;2023-05-19T04:14:48;101471.69;;;11.53;63.14
15263;BME280;7733;51.554;13.590;2023-05-19T04:17:13;101475.22;;;11.23;63.94
15263;BME280;7733;51.554;13.590;2023-05-19T04:19:39;101476.03;;;10.92;65.97
15263;BME280;7733;51.554;13.590;2023-05-19T04:22:05;101478.69;;;11.59;62.77
15263;BME280;7733;51.554;13.590;2023-05-19T04:24:31;101471.66;;;10.92;65.81
15263;BME280;7733;51.554;13.590;2023-05-19T04:26:58;101474.31;;;11.20;64.76
15263;BME280;7733;51.554;13.590;2023-05-19T04:29:30;101477.84;;;11.43;63.83
15263;BME280;7733;51.554;13.590;2023-05-19T04:31:56;101471.69;;;11.08;65.03
15263;BME280;7733;51.554;13.590;2023-05-19T04:34:22;101469.94;;;11.26;64.54
15263;BME280;7733;51.554;13.590;2023-05-19T04:36:48;101476.91;;;10.97;66.09
15263;BME280;7733;51.554;13.590;2023-05-19T04:39:14;101471.59;;;10.68;67.75
15263;BME280;7733;51.554;13.590;2023-05-19T04:41:40;101475.16;;;10.99;66.39
15263;BME280;7733;51.554;13.590;2023-05-19T04:44:06;101477.84;;;11.45;64.75
15263;BME280;7733;51.554;13.590;2023-05-19T04:46:33;101486.59;;;11.42;65.03
15263;BME280;7733;51.554;13.590;2023-05-19T04:48:59;101483.06;;;11.77;63.45
15263;BME280;7733;51.554;13.590;2023-05-19T04:51:26;101482.22;;;11.67;63.99
15263;BME280;7733;51.554;13.590;2023-05-19T04:53:58;101483.06;;;11.97;63.20
15263;BME280;7733;51.554;13.590;2023-05-19T04:56:24;101485.66;;;12.12;62.73
15263;BME280;7733;51.554;13.590;2023-05-19T04:58:51;101477.78;;;12.06;63.47
15263;BME280;7733;51.554;13.590;2023-05-19T05:01:18;101473.47;;;11.83;64.60
15263;BME280;7733;51.554;13.590;2023-05-19T05:03:46;101478.66;;;12.11;63.11
15263;BME280;7733;51.554;13.590;2023-05-19T05:06:12;101481.28;;;12.11;63.08
15263;BME280;7733;51.554;13.590;2023-05-19T05:08:37;101479.56;;;12.05;63.60
15263;BME280;7733;51.554;13.590;2023-05-19T05:11:06;101478.69;;;11.96;64.22
15263;BME280;7733;51.554;13.590;2023-05-19T05:13:32;101478.69;;;11.96;63.51
15263;BME280;7733;51.554;13.590;2023-05-19T05:15:58;101476.94;;;11.95;64.09
15263;BME280;7733;51.554;13.590;2023-05-19T05:18:24;101479.56;;;11.81;64.56
15263;BME280;7733;51.554;13.590;2023-05-19T05:20:51;101481.31;;;11.94;63.86
15263;BME280;7733;51.554;13.590;2023-05-19T05:23:18;101486.56;;;12.06;63.93
15263;BME280;7733;51.554;13.590;2023-05-19T05:25:45;101490.97;;;11.87;65.05
15263;BME280;7733;51.554;13.590;2023-05-19T05:28:11;101484.81;;;11.99;64.47
15263;BME280;7733;51.554;13.590;2023-05-19T05:30:37;101472.53;;;11.75;66.26
15263;BME280;7733;51.554;13.590;2023-05-19T05:33:03;101479.53;;;12.10;64.71
15263;BME280;7733;51.554;13.590;2023-05-19T05:35:28;101471.53;;;12.42;63.11
15263;BME280;7733;51.554;13.590;2023-05-19T05:37:54;101480.47;;;11.87;66.32
15263;BME280;7733;51.554;13.590;2023-05-19T05:40:20;101475.19;;;11.91;66.29
15263;BME280;7733;51.554;13.590;2023-05-19T05:42:46;101476.06;;;11.90;66.50
15263;BME280;7733;51.554;13.590;2023-05-19T05:45:12;101478.69;;;11.90;66.25
15263;BME280;7733;51.554;13.590;2023-05-19T05:47:38;101482.13;;;12.22;65.49
15263;BME280;7733;51.554;13.590;2023-05-19T05:50:09;101479.50;;;12.14;66.30
15263;BME280;7733;51.554;13.590;2023-05-19T05:52:36;101487.38;;;12.19;66.15
15263;BME280;7733;51.554;13.590;2023-05-19T05:55:03;101475.91;;;12.47;65.26
15263;BME280;7733;51.554;13.590;2023-05-19T05:57:29;101494.44;;;12.09;66.73
15263;BME280;7733;51.554;13.590;2023-05-19T05:59:56;101489.97;;;12.36;66.02
15263;BME280;7733;51.554;13.590;2023-05-19T06:02:22;101486.34;;;12.58;65.66
15263;BME280;7733;51.554;13.590;2023-05-19T06:04:47;101494.25;;;12.63;65.02
15263;BME280;7733;51.554;13.590;2023-05-19T06:07:13;101488.75;;;13.05;63.43
15263;BME280;7733;51.554;13.590;2023-05-19T06:09:39;101490.50;;;13.06;63.75
15263;BME280;7733;51.554;13.590;2023-05-19T06:12:05;101494.84;;;13.10;64.03
15263;BME280;7733;51.554;13.590;2023-05-19T06:14:31;101493.84;;;13.33;63.62
15263;BME280;7733;51.554;13.590;2023-05-19T06:16:56;101496.44;;;13.37;63.35
15263;BME280;7733;51.554;13.590;2023-05-19T06:19:22;101492.75;;;13.58;62.83
15263;BME280;7733;51.554;13.590;2023-05-19T06:21:50;101484.81;;;13.64;63.00
15263;BME280;7733;51.554;13.590;2023-05-19T06:24:16;101481.50;;;13.43;64.12
15263;BME280;7733;51.554;13.590;2023-05-19T06:26:42;101479.53;;;13.64;63.54
15263;BME280;7733;51.554;13.590;2023-05-19T06:29:07;101483.41;;;13.15;65.05
15263;BME280;7733;51.554;13.590;2023-05-19T06:31:33;101479.50;;;13.69;64.05
15263;BME280;7733;51.554;13.590;2023-05-19T06:33:59;101483.88;;;13.70;63.93
15263;BME280;7733;51.554;13.590;2023-05-19T06:36:25;101475.97;;;13.70;63.95
15263;BME280;7733;51.554;13.590;2023-05-19T06:38:50;101472.88;;;14.14;62.62
15263;BME280;7733;51.554;13.590;2023-05-19T06:41:16;101470.34;;;14.05;62.87
15263;BME280;7733;51.554;13.590;2023-05-19T06:43:42;101486.97;;;14.12;62.18
15263;BME280;7733;51.554;13.590;2023-05-19T06:46:08;101484.22;;;14.21;62.19
15263;BME280;7733;51.554;13.590;2023-05-19T06:48:34;101492.16;;;14.22;62.37
15263;BME280;7733;51.554;13.590;2023-05-19T06:50:59;101486.06;;;14.14;62.71
15263;BME280;7733;51.554;13.590;2023-05-19T06:53:25;101487.41;;;14.52;62.35
15263;BME280;7733;51.554;13.590;2023-05-19T06:55:51;101496.31;;;14.45;62.18
15263;BME280;7733;51.554;13.590;2023-05-19T06:58:17;101490.03;;;14.53;61.43
15263;BME280;7733;51.554;13.590;2023-05-19T07:00:42;101486.22;;;14.76;61.08
15263;BME280;7733;51.554;13.590;2023-05-19T07:03:08;101486.72;;;15.04;60.36
15263;BME280;7733;51.554;13.590;2023-05-19T07:05:34;101488.31;;;15.14;60.05
15263;BME280;7733;51.554;13.590;2023-05-19T07:08:00;101491.03;;;15.09;60.21
15263;BME280;7733;51.554;13.590;2023-05-19T07:10:26;101488.22;;;15.20;59.87
15263;BME280;7733;51.554;13.590;2023-05-19T07:12:52;101482.69;;;15.35;59.48
15263;BME280;7733;51.554;13.590;2023-05-19T07:15:18;101485.31;;;15.37;59.43
15263;BME280;7733;51.554;13.590;2023-05-19T07:17:44;101481.63;;;15.47;59.14
15263;BME280;7733;51.554;13.590;2023-05-19T07:20:10;101487.75;;;15.50;59.00
15263;BME280;7733;51.554;13.590;2023-05-19T07:22:36;101487.63;;;15.57;59.18
15263;BME280;7733;51.554;13.590;2023-05-19T07:25:05;101479.56;;;15.67;58.48
15263;BME280;7733;51.554;13.590;2023-05-19T07:27:31;101476.50;;;15.36;58.68
15263;BME280;7733;51.554;13.590;2023-05-19T07:29:57;101475.59;;;15.37;59.33
15263;BME280;7733;51.554;13.590;2023-05-19T07:32:23;101471.75;;;15.57;58.68
15263;BME280;7733;51.554;13.590;2023-05-19T07:34:49;101464.34;;;15.78;58.37
15263;BME280;7733;51.554;13.590;2023-05-19T07:37:15;101467.66;;;15.91;58.00
15263;BME280;7733;51.554;13.590;2023-05-19T07:39:41;101466.81;;;15.89;58.49
15263;BME280;7733;51.554;13.590;2023-05-19T07:42:07;101462.25;;;15.46;58.96
15263;BME280;7733;51.554;13.590;2023-05-19T07:44:32;101452.94;;;16.23;57.63
15263;BME280;7733;51.554;13.590;2023-05-19T07:47:00;101448.28;;;15.89;58.12
15263;BME280;7733;51.554;13.590;2023-05-19T07:49:26;101443.13;;;15.83;57.58
15263;BME280;7733;51.554;13.590;2023-05-19T07:51:53;101449.47;;;16.18;57.62
15263;BME280;7733;51.554;13.590;2023-05-19T07:54:19;101443.13;;;16.28;57.56
15263;BME280;7733;51.554;13.590;2023-05-19T07:56:45;101438.72;;;16.27;57.37
15263;BME280;7733;51.554;13.590;2023-05-19T07:59:11;101436.84;;;16.32;57.18
15263;BME280;7733;51.554;13.590;2023-05-19T08:01:37;101444.72;;;16.35;56.47
15263;BME280;7733;51.554;13.590;2023-05-19T08:04:03;101441.31;;;16.71;55.89
15263;BME280;7733;51.554;13.590;2023-05-19T08:06:29;101448.13;;;16.82;55.84
15263;BME280;7733;51.554;13.590;2023-05-19T08:08:56;101440.63;;;16.62;55.70
15263;BME280;7733;51.554;13.590;2023-05-19T08:11:22;101442.69;;;16.48;55.89
15263;BME280;7733;51.554;13.590;2023-05-19T08:13:47;101441.69;;;16.53;55.78
15263;BME280;7733;51.554;13.590;2023-05-19T08:16:14;101435.13;;;16.72;55.68
15263;BME280;7733;51.554;13.590;2023-05-19T08:18:40;101437.06;;;16.61;55.95
15263;BME280;7733;51.554;13.590;2023-05-19T08:21:06;101434.34;;;16.67;56.07
15263;BME280;7733;51.554;13.590;2023-05-19T08:23:32;101438.13;;;16.54;56.80
15263;BME280;7733;51.554;13.590;2023-05-19T08:25:58;101434.13;;;16.77;55.58
15263;BME280;7733;51.554;13.590;2023-05-19T08:28:24;101420.03;;;16.75;55.70
15263;BME280;7733;51.554;13.590;2023-05-19T08:30:50;101419.00;;;16.82;56.14
15263;BME280;7733;51.554;13.590;2023-05-19T08:33:19;101407.81;;;17.06;55.41
15263;BME280;7733;51.554;13.590;2023-05-19T08:35:47;101402.56;;;17.39;55.28
15263;BME280;7733;51.554;13.590;2023-05-19T08:38:13;101413.84;;;17.81;54.21
15263;BME280;7733;51.554;13.590;2023-05-19T08:40:42;101407.94;;;17.71;52.77
15263;BME280;7733;51.554;13.590;2023-05-19T08:43:10;101404.13;;;18.12;52.46
15263;BME280;7733;51.554;13.590;2023-05-19T08:45:38;101399.13;;;18.61;51.05
15263;BME280;7733;51.554;13.590;2023-05-19T08:48:07;101388.47;;;18.90;49.73
15263;BME280;7733;51.554;13.590;2023-05-19T08:50:39;101398.19;;;18.91;48.37
15263;BME280;7733;51.554;13.590;2023-05-19T08:53:23;101394.41;;;18.98;48.27
15263;BME280;7733;51.554;13.590;2023-05-19T08:56:04;101401.69;;;19.20;46.66
15263;BME280;7733;51.554;13.590;2023-05-19T08:58:39;101387.81;;;19.36;46.51
15263;BME280;7733;51.554;13.590;2023-05-19T09:01:08;101391.66;;;19.79;45.19
15263;BME280;7733;51.554;13.590;2023-05-19T09:03:35;101386.56;;;19.73;44.89
15263;BME280;7733;51.554;13.590;2023-05-19T09:06:07;101382.25;;;19.94;44.20
15263;BME280;7733;51.554;13.590;2023-05-19T09:08:34;101381.78;;;19.83;44.30
15263;BME280;7733;51.554;13.590;2023-05-19T09:11:01;101388.72;;;19.87;44.14
15263;BME280;7733;51.554;13.590;2023-05-19T09:13:27;101392.69;;;19.75;43.60
15263;BME280;7733;51.554;13.590;2023-05-19T09:15:52;101381.66;;;19.86;43.32
15263;BME280;7733;51.554;13.590;2023-05-19T09:18:20;101383.53;;;20.07;43.40
15263;BME280;7733;51.554;13.590;2023-05-19T09:20:46;101381.00;;;20.51;42.97
15263;BME280;7733;51.554;13.590;2023-05-19T09:23:16;101384.97;;;20.39;42.67
15263;BME280;7733;51.554;13.590;2023-05-19T09:25:52;101381.38;;;19.93;42.67
15263;BME280;7733;51.554;13.590;2023-05-19T09:28:30;101374.94;;;19.75;42.93
15263;BME280;7733;51.554;13.590;2023-05-19T09:31:06;101363.28;;;19.78;42.87
15263;BME280;7733;51.554;13.590;2023-05-19T09:33:37;101376.09;;;19.68;43.83
15263;BME280;7733;51.554;13.590;2023-05-19T09:36:04;101375.19;;;19.17;44.37
15263;BME280;7733;51.554;13.590;2023-05-19T09:38:31;101379.31;;;19.52;44.27
15263;BME280;7733;51.554;13.590;2023-05-19T09:40:59;101378.41;;;20.01;43.34
15263;BME280;7733;51.554;13.590;2023-05-19T09:43:29;101370.22;;;19.84;43.17
15263;BME280;7733;51.554;13.590;2023-05-19T09:46:09;101371.34;;;20.00;43.03
15263;BME280;7733;51.554;13.590;2023-05-19T09:48:37;101362.72;;;19.93;43.28
15263;BME280;7733;51.554;13.590;2023-05-19T09:51:06;101370.59;;;19.96;43.39
15263;BME280;7733;51.554;13.590;2023-05-19T09:53:34;101363.66;;;19.42;44.14
15263;BME280;7733;51.554;13.590;2023-05-19T09:56:02;101364.63;;;19.40;44.23
15263;BME280;7733;51.554;13.590;2023-05-19T09:58:34;101360.53;;;19.56;44.35
15263;BME280;7733;51.554;13.590;2023-05-19T10:01:02;101351.06;;;19.72;43.89
15263;BME280;7733;51.554;13.590;2023-05-19T10:03:29;101352.28;;;19.64;44.05
15263;BME280;7733;51.554;13.590;2023-05-19T10:06:00;101349.84;;;19.81;43.64
15263;BME280;7733;51.554;13.590;2023-05-19T10:08:27;101343.16;;;20.41;43.63
15263;BME280;7733;51.554;13.590;2023-05-19T10:10:55;101354.28;;;20.52;42.66
15263;BME280;7733;51.554;13.590;2023-05-19T10:13:22;101345.97;;;20.60;41.53
15263;BME280;7733;51.554;13.590;2023-05-19T10:15:49;101338.09;;;20.79;40.95
15263;BME280;7733;51.554;13.590;2023-05-19T10:18:17;101346.81;;;20.60;41.39
15263;BME280;7733;51.554;13.590;2023-05-19T10:20:43;101348.72;;;20.12;41.46
15263;BME280;7733;51.554;13.590;2023-05-19T10:23:09;101343.97;;;19.96;41.62
15263;BME280;7733;51.554;13.590;2023-05-19T10:25:36;101336.31;;;20.34;41.58
15263;BME280;7733;51.554;13.590;2023-05-19T10:28:16;101340.34;;;20.46;41.28
15263;BME280;7733;51.554;13.590;2023-05-19T10:30:49;101340.78;;;20.10;42.02
15263;BME280;7733;51.554;13.590;2023-05-19T10:33:19;101336.75;;;20.47;41.75
15263;BME280;7733;51.554;13.590;2023-05-19T10:38:57;101326.31;;;20.39;41.42
15263;BME280;7733;51.554;13.590;2023-05-19T10:42:02;101314.00;;;19.91;41.86
15263;BME280;7733;51.554;13.590;2023-05-19T10:44:59;101312.69;;;20.25;41.20
15263;BME280;7733;51.554;13.590;2023-05-19T10:47:28;101318.13;;;19.98;41.48
15263;BME280;7733;51.554;13.590;2023-05-19T10:49:54;101312.28;;;20.57;40.79
15263;BME280;7733;51.554;13.590;2023-05-19T10:52:22;101319.69;;;20.51;40.57
15263;BME280;7733;51.554;13.590;2023-05-19T10:54:50;101306.19;;;20.98;40.38
15263;BME280;7733;51.554;13.590;2023-05-19T10:57:25;101311.25;;;20.83;40.54
15263;BME280;7733;51.554;13.590;2023-05-19T10:59:56;101309.28;;;20.67;40.17
15263;BME280;7733;51.554;13.590;2023-05-19T11:02:41;101321.09;;;20.59;40.28
15263;BME280;7733;51.554;13.590;2023-05-19T11:05:14;101328.19;;;20.37;41.27
15263;BME280;7733;51.554;13.590;2023-05-19T11:07:53;101319.81;;;20.24;41.30
15263;BME280;7733;51.554;13.590;2023-05-19T11:10:25;101322.38;;;20.04;42.04
15263;BME280;7733;51.554;13.590;2023-05-19T11:12:51;101333.00;;;19.81;42.43
15263;BME280;7733;51.554;13.590;2023-05-19T11:15:17;101318.31;;;19.94;42.00
15263;BME280;7733;51.554;13.590;2023-05-19T11:17:47;101325.16;;;19.78;43.14
15263;BME280;7733;51.554;13.590;2023-05-19T11:20:25;101330.31;;;20.05;43.01
15263;BME280;7733;51.554;13.590;2023-05-19T11:23:08;101322.84;;;20.15;42.62
15263;BME280;7733;51.554;13.590;2023-05-19T11:25:50;101321.78;;;20.86;42.37
15263;BME280;7733;51.554;13.590;2023-05-19T11:28:20;101316.22;;;20.49;42.23
15263;BME280;7733;51.554;13.590;2023-05-19T11:30:53;101311.66;;;20.94;41.93
15263;BME280;7733;51.554;13.590;2023-05-19T11:33:20;101314.31;;;20.94;41.43
15263;BME280;7733;51.554;13.590;2023-05-19T11:35:49;101325.06;;;20.49;41.54
15263;BME280;7733;51.554;13.590;2023-05-19T11:38:19;101321.06;;;20.38;41.73
15263;BME280;7733;51.554;13.590;2023-05-19T11:40:48;101317.97;;;20.26;42.47
15263;BME280;7733;51.554;13.590;2023-05-19T11:43:14;101317.38;;;20.18;42.25
15263;BME280;7733;51.554;13.590;2023-05-19T11:45:41;101315.72;;;19.92;42.64
15263;BME280;7733;51.554;13.590;2023-05-19T11:48:11;101312.44;;;20.31;42.27
15263;BME280;7733;51.554;13.590;2023-05-19T11:50:40;101318.03;;;20.25;42.89
15263;BME280;7733;51.554;13.590;2023-05-19T11:53:11;101316.53;;;19.71;43.12
15263;BME280;7733;51.554;13.590;2023-05-19T11:55:44;101314.56;;;19.76;43.16
15263;BME280;7733;51.554;13.590;2023-05-19T11:58:10;101321.34;;;19.85;43.52
15263;BME280;7733;51.554;13.590;2023-05-19T12:00:38;101325.44;;;19.45;44.03
15263;BME280;7733;51.554;13.590;2023-05-19T12:03:05;101332.19;;;19.55;43.71
15263;BME280;7733;51.554;13.590;2023-05-19T12:05:32;101335.41;;;19.38;44.39
15263;BME280;7733;51.554;13.590;2023-05-19T12:08:01;101325.31;;;19.73;44.04
15263;BME280;7733;51.554;13.590;2023-05-19T12:10:30;101322.41;;;19.56;44.61
15263;BME280;7733;51.554;13.590;2023-05-19T12:12:58;101330.59;;;19.74;44.15
15263;BME280;7733;51.554;13.590;2023-05-19T12:15:24;101317.28;;;19.74;43.38
15263;BME280;7733;51.554;13.590;2023-05-19T12:17:58;101312.00;;;19.96;44.10
15263;BME280;7733;51.554;13.590;2023-05-19T12:20:26;101322.16;;;19.87;43.80
15263;BME280;7733;51.554;13.590;2023-05-19T12:22:54;101314.78;;;19.45;44.70
15263;BME280;7733;51.554;13.590;2023-05-19T12:25:21;101322.16;;;19.12;45.07
15263;BME280;7733;51.554;13.590;2023-05-19T12:27:47;101330.09;;;19.38;45.07
15263;BME280;7733;51.554;13.590;2023-05-19T12:30:15;101320.19;;;19.42;45.06
15263;BME280;7733;51.554;13.590;2023-05-19T12:32:42;101325.09;;;19.29;45.54
15263;BME280;7733;51.554;13.590;2023-05-19T12:35:09;101312.06;;;19.47;44.86
15263;BME280;7733;51.554;13.590;2023-05-19T12:37:40;101303.72;;;19.57;44.96
15263;BME280;7733;51.554;13.590;2023-05-19T12:40:07;101306.50;;;20.01;44.49
15263;BME280;7733;51.554;13.590;2023-05-19T12:42:33;101303.22;;;19.71;44.63
15263;BME280;7733;51.554;13.590;2023-05-19T12:45:02;101299.88;;;19.66;44.76
15263;BME280;7733;51.554;13.590;2023-05-19T12:47:38;101308.84;;;19.63;44.54
15263;BME280;7733;51.554;13.590;2023-05-19T12:50:05;101303.38;;;19.66;44.59
15263;BME280;7733;51.554;13.590;2023-05-19T12:52:46;101304.25;;;19.67;44.35
15263;BME280;7733;51.554;13.590;2023-05-19T12:55:13;101312.75;;;19.77;44.35
15263;BME280;7733;51.554;13.590;2023-05-19T12:57:43;101314.56;;;19.51;44.93
15263;BME280;7733;51.554;13.590;2023-05-19T13:00:20;101308.47;;;19.96;44.32
15263;BME280;7733;51.554;13.590;2023-05-19T13:03:01;101311.38;;;19.90;44.02
15263;BME280;7733;51.554;13.590;2023-05-19T13:05:32;101316.03;;;19.60;45.25
15263;BME280;7733;51.554;13.590;2023-05-19T13:08:00;101314.78;;;19.93;44.56
15263;BME280;7733;51.554;13.590;2023-05-19T13:10:28;101318.81;;;19.57;45.14
15263;BME280;7733;51.554;13.590;2023-05-19T13:12:55;101313.25;;;19.38;45.29
15263;BME280;7733;51.554;13.590;2023-05-19T13:15:23;101318.19;;;19.49;45.31
15263;BME280;7733;51.554;13.590;2023-05-19T13:17:51;101311.44;;;19.65;45.05